Flight Track Log - Related Links

Times and Time Zones

All times are in EDT time to prevent confusion due to time zone crossing. See the N9791F flight status page for this flight to view local times or setup timezone preferences in your user account.

Time Position Orientation Groundspeed Altitude Reporting Facility
EDT Latitude Longitude Course Direction KTS MPH feet Rate Location/Type
Thu 10:47:17 AM 34.8814 -86.6089 10° North 82 94 3,100  Level Memphis Center
Thu 10:48:19 AM 34.9064 -86.6033 10° North 83 96 3,000 -242 Descending Memphis Center
Thu 10:49:21 AM 34.9306 -86.5933 19° North 88 101 2,600 -145 Descending Memphis Center
Thu 10:50:23 AM 34.9594 -86.5853 13° North 88 101 2,700 -97 Climbing Memphis Center
Thu 10:51:25 AM 34.9861 -86.5800 North 89 102 2,400 -387 Descending Memphis Center
Thu 10:52:27 AM 35.0106 -86.5725 14° North 91 105 1,900 -387 Descending Memphis Center
Thu 10:53:29 AM 35.0344 -86.5647 15° North 91 105 1,600 289 Descending Memphis Center
Thu 10:56:36 AM 35.0536 -86.5550 195° South 88 101 3,100 386 Climbing Memphis Center
Thu 10:57:38 AM 35.0850 -86.5464 13° North 87 100 3,200 48 Climbing Memphis Center
Thu 10:58:40 AM 35.1081 -86.5411 11° North 87 100 3,200 -48 Level Memphis Center
Thu 10:59:42 AM 35.1194 -86.5617 304° West 103 119 3,100  Descending Memphis Center
Thu 11:00:44 AM 35.1014 -86.5397 135° Southeast 118 136 3,200  Climbing Memphis Center
Thu 11:01:46 AM 35.0722 -86.5394 180° South 111 128 3,100 -32 Descending Memphis Center
Thu 11:03:50 AM 35.0053 -86.5533 196° South 109 125 3,100  Level Memphis Center
Thu 11:04:52 AM 34.9769 -86.5739 211° Southwest 113 130 3,100  Level Memphis Center
Thu 11:05:54 AM 34.9519 -86.5844 199° South 121 139 3,100 48 Level Memphis Center
Thu 11:06:57 AM 34.9239 -86.5708 158° South 115 132 3,200 -19 Climbing Memphis Center
Thu 11:11:05 AM 34.9444 -86.5689 198° South 110 127 3,000  Descending Memphis Center
Thu 11:13:09 AM 34.9508 -86.5956 286° West 100 115 3,200 65 Climbing Memphis Center
Thu 11:14:11 AM 34.9489 -86.5728 96° East 104 120 3,200  Level Memphis Center
Thu 11:17:17 AM 34.9044 -86.4864 39° Northeast 106 122 3,200 -24 Level Memphis Center
Thu 11:18:19 AM 34.8775 -86.4694 153° Southeast 111 128 3,100 -48 Descending Memphis Center
Thu 11:19:21 AM 34.8536 -86.4519 149° Southeast 110 127 3,100 48 Level Memphis Center
Thu 11:20:23 AM 34.8294 -86.4325 147° Southeast 107 123 3,200 24 Climbing Memphis Center
Thu 11:23:30 AM 34.8406 -86.5056 239° Southwest 105 121 3,200  Level Memphis Center
Thu 11:24:32 AM 34.8553 -86.5369 300° West 105 121 3,200 -48 Level Memphis Center
Thu 11:25:34 AM 34.8694 -86.5661 301° West 105 121 3,100 -48 Descending Memphis Center
Thu 11:26:36 AM 34.8753 -86.6039 281° West 109 125 3,100 48 Level Memphis Center
Thu 11:27:38 AM 34.8789 -86.6392 277° West 109 125 3,200  Climbing Memphis Center
Thu 11:29:42 AM 34.8617 -86.7119 191° South 107 123 3,100  Descending Memphis Center
Thu 11:31:46 AM 34.8236 -86.7281 41° Northeast 115 132 3,200 -97 Climbing Memphis Center
Thu 11:32:48 AM 34.7975 -86.7114 152° Southeast 112 129 2,800 -548 Descending Memphis Center
Thu 11:34:52 AM 34.7289 -86.6972 231° Southwest 112 129 1,500 -581 Descending Memphis Center
Thu 11:35:54 AM 34.7017 -86.6908 169° South 110 127 1,000  Descending Memphis Center
Thu 11:36:56 AM 34.6858 -86.6700 133° Southeast 100 115 1,500 240 Climbing Memphis Center
Thu 11:37:59 AM 34.6603 -86.6661 173° South 98 113 1,500  Level Memphis Center
Thu 11:41:00 AM 34.6786 -86.6848 231° Southwest  Level Estimated

Login

Don't have an account? Register now (free) for customized features, flight alerts, and more!